createdAt,value
2018-09-28T00:00:06.248Z,4.33
2018-09-28T00:00:39.447Z,7.08
2018-09-28T00:01:12.966Z,4.28
2018-09-28T00:01:46.203Z,7.30
2018-09-28T00:02:19.574Z,8.25
2018-09-28T00:02:52.862Z,4.40
2018-09-28T00:03:26.333Z,5.70
2018-09-28T00:03:59.591Z,12.90
2018-09-28T00:04:32.907Z,4.45
2018-09-28T00:05:06.091Z,5.58
2018-09-28T00:05:39.297Z,4.00
2018-09-28T00:06:12.636Z,4.92
2018-09-28T00:06:45.861Z,4.75
2018-09-28T00:07:19.069Z,4.85
2018-09-28T00:07:52.466Z,4.83
2018-09-28T00:08:25.725Z,6.42
2018-09-28T00:08:59.520Z,6.00
2018-09-28T00:09:32.771Z,4.80
2018-09-28T00:10:06.215Z,4.22
2018-09-28T00:10:39.395Z,5.30
2018-09-28T00:11:12.606Z,6.00
2018-09-28T00:11:46.250Z,4.97
2018-09-28T00:12:19.430Z,6.72
2018-09-28T00:12:52.624Z,4.58
2018-09-28T00:13:25.917Z,7.25
2018-09-28T00:13:59.124Z,5.10
2018-09-28T00:14:32.339Z,3.98
2018-09-28T00:15:05.586Z,4.40
2018-09-28T00:15:38.785Z,5.53
2018-09-28T00:16:12.022Z,5.45
2018-09-28T00:16:45.239Z,4.10
2018-09-28T00:17:18.429Z,8.00
2018-09-28T00:17:51.724Z,6.35
2018-09-28T00:18:24.911Z,4.37
2018-09-28T00:18:58.111Z,4.00
2018-09-28T00:19:31.324Z,4.97
2018-09-28T00:20:04.852Z,4.37
2018-09-28T00:20:38.164Z,4.50
2018-09-28T00:21:11.398Z,4.03
2018-09-28T00:21:44.610Z,4.80
2018-09-28T00:22:17.818Z,3.77
2018-09-28T00:22:51.534Z,5.22
2018-09-28T00:23:24.735Z,10.10
2018-09-28T00:23:58.010Z,6.95
2018-09-28T00:24:31.611Z,3.42
2018-09-28T00:25:04.822Z,4.80
2018-09-28T00:25:38.616Z,5.37
2018-09-28T00:26:11.945Z,3.70
2018-09-28T00:26:45.314Z,5.58
2018-09-28T00:27:18.565Z,5.25
2018-09-28T00:27:51.940Z,4.33
2018-09-28T00:28:25.165Z,3.90
2018-09-28T00:28:58.398Z,6.35
2018-09-28T00:29:31.835Z,7.67
2018-09-28T00:30:05.318Z,3.92
2018-09-28T00:30:38.546Z,6.92
2018-09-28T00:31:11.827Z,8.08
2018-09-28T00:31:45.038Z,6.58
2018-09-28T00:32:18.475Z,7.58
2018-09-28T00:32:51.988Z,8.85
2018-09-28T00:33:25.216Z,7.45
2018-09-28T00:33:58.462Z,6.72
2018-09-28T00:34:38.201Z,5.33
2018-09-28T00:35:11.500Z,5.85
2018-09-28T00:35:44.711Z,3.92
2018-09-28T00:36:17.927Z,5.10
2018-09-28T00:36:51.647Z,6.00
2018-09-28T00:37:24.854Z,3.90
2018-09-28T00:37:58.103Z,5.87
2018-09-28T00:38:31.290Z,7.45
2018-09-28T00:39:09.657Z,3.75
2018-09-28T00:39:42.850Z,4.30
2018-09-28T00:40:16.321Z,5.60
2018-09-28T00:40:49.718Z,3.98
2018-09-28T00:41:22.948Z,5.03
2018-09-28T00:41:56.194Z,7.03
2018-09-28T00:42:29.567Z,4.50
2018-09-28T00:43:02.794Z,7.37
2018-09-28T00:43:36.046Z,4.28
2018-09-28T00:44:09.279Z,4.53
2018-09-28T00:44:42.643Z,6.20
2018-09-28T00:45:15.887Z,4.75
2018-09-28T00:45:49.625Z,4.28
2018-09-28T00:46:22.858Z,5.05
2018-09-28T00:46:56.108Z,5.08
2018-09-28T00:47:29.402Z,4.78
2018-09-28T00:48:02.635Z,5.30
2018-09-28T00:48:35.890Z,4.15
2018-09-28T00:49:10.483Z,4.95
2018-09-28T00:49:43.660Z,5.53
2018-09-28T00:50:16.825Z,7.83
2018-09-28T00:50:50.132Z,5.05
2018-09-28T00:51:23.786Z,6.55
2018-09-28T00:51:56.982Z,4.90
2018-09-28T00:52:30.243Z,5.70
2018-09-28T00:53:03.647Z,5.85
2018-09-28T00:53:36.872Z,4.30
2018-09-28T00:54:10.104Z,3.58
2018-09-28T00:54:43.230Z,5.35
2018-09-28T00:55:16.405Z,5.60
2018-09-28T00:55:49.649Z,3.75
2018-09-28T00:56:22.866Z,4.25
2018-09-28T00:56:56.041Z,3.65
2018-09-28T00:57:29.304Z,3.30
2018-09-28T00:58:02.547Z,5.80
2018-09-28T00:58:35.790Z,3.67
2018-09-28T00:59:09.046Z,4.85
2018-09-28T00:59:42.282Z,4.05
2018-09-28T01:00:15.511Z,11.08
2018-09-28T01:00:48.780Z,3.90
2018-09-28T01:01:22.348Z,5.67
2018-09-28T01:01:55.669Z,5.65
2018-09-28T01:02:28.954Z,4.75
2018-09-28T01:03:02.229Z,7.95
2018-09-28T01:03:35.438Z,5.55
2018-09-28T01:04:08.636Z,5.85
2018-09-28T01:04:41.861Z,4.58
2018-09-28T01:05:15.354Z,6.10
2018-09-28T01:05:48.581Z,5.53
2018-09-28T01:06:21.771Z,8.65
2018-09-28T01:06:54.968Z,9.43
2018-09-28T01:07:28.270Z,6.22
2018-09-28T01:08:01.469Z,4.50
2018-09-28T01:08:34.719Z,4.40
2018-09-28T01:09:09.511Z,4.62
2018-09-28T01:09:42.712Z,4.62
2018-09-28T01:10:16.516Z,4.62
2018-09-28T01:10:49.674Z,4.10
2018-09-28T01:11:22.806Z,5.30
2018-09-28T01:11:56.055Z,5.83
2018-09-28T01:12:29.306Z,3.95
2018-09-28T01:13:03.111Z,7.92
2018-09-28T01:13:36.348Z,4.25
2018-09-28T01:14:09.777Z,6.15
2018-09-28T01:14:43.200Z,6.35
2018-09-28T01:15:16.387Z,4.22
2018-09-28T01:15:49.807Z,3.80
2018-09-28T01:16:23.047Z,4.03
2018-09-28T01:16:56.252Z,10.08
2018-09-28T01:17:29.488Z,4.53
2018-09-28T01:18:02.747Z,6.28
2018-09-28T01:18:36.028Z,3.90
2018-09-28T01:19:09.295Z,6.40
2018-09-28T01:19:42.502Z,5.70
2018-09-28T01:20:15.690Z,4.00
2018-09-28T01:20:48.849Z,9.45
2018-09-28T01:21:22.041Z,4.22
2018-09-28T01:21:55.239Z,4.70
2018-09-28T01:22:28.576Z,7.33
2018-09-28T01:23:01.805Z,4.35
2018-09-28T01:23:34.963Z,5.17
2018-09-28T01:24:08.136Z,5.58
2018-09-28T01:24:41.362Z,5.08
2018-09-28T01:25:14.604Z,10.65
2018-09-28T01:25:47.848Z,6.53
2018-09-28T01:26:21.086Z,8.08
2018-09-28T01:26:54.297Z,6.72
2018-09-28T01:27:27.566Z,5.97
2018-09-28T01:28:00.975Z,4.50
2018-09-28T01:28:34.139Z,8.78
2018-09-28T01:29:07.326Z,8.30
2018-09-28T01:29:40.539Z,6.33
2018-09-28T01:30:13.742Z,5.67
2018-09-28T01:30:46.977Z,6.90
2018-09-28T01:31:20.234Z,6.25
2018-09-28T01:31:53.437Z,5.30
2018-09-28T01:32:26.691Z,6.75
2018-09-28T01:32:59.870Z,7.50
2018-09-28T01:33:33.076Z,5.15
2018-09-28T01:34:06.251Z,4.95
2018-09-28T01:34:39.509Z,4.20
2018-09-28T01:35:12.718Z,4.75
2018-09-28T01:35:45.950Z,6.78
2018-09-28T01:36:19.331Z,5.67
2018-09-28T01:36:52.582Z,6.55
2018-09-28T01:37:25.769Z,4.83
2018-09-28T01:37:59.154Z,4.60
2018-09-28T01:38:33.005Z,6.17
2018-09-28T01:39:06.942Z,6.45
2018-09-28T01:39:40.215Z,5.47
2018-09-28T01:40:13.441Z,4.50
2018-09-28T01:40:46.613Z,7.55
2018-09-28T01:41:19.862Z,10.05
2018-09-28T01:41:53.067Z,8.65
2018-09-28T01:42:26.390Z,8.83
2018-09-28T01:42:59.620Z,7.20
2018-09-28T01:43:33.003Z,5.05
2018-09-28T01:44:06.246Z,7.58
2018-09-28T01:44:39.447Z,8.38
2018-09-28T01:45:12.662Z,6.28
2018-09-28T01:45:45.884Z,7.87
2018-09-28T01:46:19.132Z,6.22
2018-09-28T01:46:52.442Z,4.15
2018-09-28T01:47:25.622Z,7.00
2018-09-28T01:47:58.844Z,6.97
2018-09-28T01:48:32.061Z,5.17
2018-09-28T01:49:05.319Z,6.30
2018-09-28T01:49:38.544Z,6.20
2018-09-28T01:50:11.857Z,6.45
2018-09-28T01:50:45.027Z,6.87
2018-09-28T01:51:18.284Z,7.62
2018-09-28T01:51:51.654Z,6.00
2018-09-28T01:52:24.867Z,5.50
2018-09-28T01:52:58.060Z,5.40
2018-09-28T01:53:31.257Z,5.65
2018-09-28T01:54:04.446Z,6.03
2018-09-28T01:54:37.743Z,6.28
2018-09-28T01:55:10.992Z,8.10
2018-09-28T01:55:44.283Z,5.40
2018-09-28T01:56:17.485Z,5.80
2018-09-28T01:56:50.702Z,5.85
2018-09-28T01:57:26.767Z,5.53
2018-09-28T01:57:59.988Z,10.38
2018-09-28T01:58:33.211Z,7.70
2018-09-28T01:59:06.426Z,4.50
2018-09-28T01:59:39.695Z,6.25
2018-09-28T02:00:12.913Z,6.17
2018-09-28T02:00:46.166Z,10.28
2018-09-28T02:01:20.157Z,6.90
2018-09-28T02:01:53.310Z,5.12
2018-09-28T02:02:26.875Z,7.60
2018-09-28T02:03:00.144Z,8.45
2018-09-28T02:03:33.577Z,6.90
2018-09-28T02:04:06.769Z,7.53
2018-09-28T02:04:40.051Z,6.33
2018-09-28T02:05:13.248Z,6.05
2018-09-28T02:05:46.526Z,5.42
2018-09-28T02:06:19.756Z,6.45
2018-09-28T02:06:53.352Z,7.80
2018-09-28T02:07:27.429Z,5.37
2018-09-28T02:08:00.750Z,7.00
2018-09-28T02:08:33.933Z,6.80
2018-09-28T02:09:07.316Z,5.53
2018-09-28T02:09:40.554Z,8.95
2018-09-28T02:10:13.828Z,6.60
2018-09-28T02:10:47.127Z,8.88
2018-09-28T02:11:20.807Z,7.62
2018-09-28T02:11:53.994Z,5.10
2018-09-28T02:12:27.261Z,6.22
2018-09-28T02:13:00.680Z,5.65
2018-09-28T02:13:33.904Z,7.97
2018-09-28T02:14:07.141Z,7.25
2018-09-28T02:14:40.365Z,4.72
2018-09-28T02:15:13.552Z,5.10
2018-09-28T02:15:46.871Z,5.05
2018-09-28T02:16:20.061Z,8.60
2018-09-28T02:16:53.324Z,8.73
2018-09-28T02:17:26.566Z,8.23
2018-09-28T02:17:59.794Z,5.70
2018-09-28T02:18:33.251Z,8.28
2018-09-28T02:19:06.453Z,5.30
2018-09-28T02:19:39.761Z,7.75
2018-09-28T02:20:13.039Z,7.62
2018-09-28T02:20:46.260Z,10.58
2018-09-28T02:21:19.615Z,10.25
2018-09-28T02:21:52.790Z,7.10
2018-09-28T02:22:25.970Z,9.75
2018-09-28T02:22:59.170Z,6.42
2018-09-28T02:23:32.644Z,6.62
2018-09-28T02:24:05.913Z,7.70
2018-09-28T02:24:39.150Z,7.37
2018-09-28T02:25:12.566Z,7.35
2018-09-28T02:25:46.362Z,6.50
2018-09-28T02:26:19.624Z,8.30
2018-09-28T02:26:52.931Z,8.35
2018-09-28T02:27:26.137Z,7.97
2018-09-28T02:27:59.721Z,6.50
2018-09-28T02:28:32.914Z,8.03
2018-09-28T02:29:06.137Z,8.40
2018-09-28T02:29:39.425Z,9.48
2018-09-28T02:30:12.624Z,6.37
2018-09-28T02:30:45.861Z,5.65
2018-09-28T02:31:19.113Z,7.75
2018-09-28T02:31:52.476Z,6.58
2018-09-28T02:32:25.678Z,6.58
2018-09-28T02:32:58.908Z,6.87
2018-09-28T02:33:32.082Z,8.00
2018-09-28T02:34:05.417Z,6.97
2018-09-28T02:34:38.640Z,8.43
2018-09-28T02:35:11.869Z,9.18
2018-09-28T02:35:45.016Z,6.90
2018-09-28T02:36:18.243Z,8.68
2018-09-28T02:36:51.449Z,8.55
2018-09-28T02:37:24.662Z,7.00
2018-09-28T02:37:57.867Z,6.58
2018-09-28T02:38:31.044Z,8.35
2018-09-28T02:39:05.879Z,9.00
2018-09-28T02:39:39.066Z,5.80
2018-09-28T02:40:12.627Z,9.63
2018-09-28T02:40:45.855Z,7.40
2018-09-28T02:41:19.028Z,7.97
2018-09-28T02:41:52.212Z,7.70
2018-09-28T02:42:25.384Z,9.83
2018-09-28T02:42:58.565Z,8.30
2018-09-28T02:43:32.286Z,9.65
2018-09-28T02:44:05.532Z,9.23
2018-09-28T02:44:38.726Z,10.48
2018-09-28T02:45:12.174Z,6.78
2018-09-28T02:45:45.453Z,9.20
2018-09-28T02:46:18.666Z,8.65
2018-09-28T02:46:51.950Z,9.63
2018-09-28T02:47:25.468Z,8.70
2018-09-28T02:47:59.267Z,9.40
2018-09-28T02:48:33.146Z,9.08
2018-09-28T02:49:06.421Z,8.50
2018-09-28T02:49:39.664Z,10.13
2018-09-28T02:50:12.947Z,11.18
2018-09-28T02:50:46.130Z,7.10
2018-09-28T02:51:19.295Z,8.08
2018-09-28T02:51:52.681Z,11.45
2018-09-28T02:52:25.930Z,8.23
2018-09-28T02:52:59.647Z,9.88
2018-09-28T02:53:32.992Z,9.58
2018-09-28T02:54:06.196Z,8.75
2018-09-28T02:54:40.052Z,10.10
2018-09-28T02:55:13.275Z,9.90
2018-09-28T02:55:47.770Z,12.60
2018-09-28T02:56:20.975Z,7.87
2018-09-28T02:56:54.664Z,9.18
2018-09-28T02:57:27.810Z,9.68
2018-09-28T02:58:01.034Z,5.97
2018-09-28T02:58:34.234Z,8.03
2018-09-28T02:59:07.417Z,13.08
2018-09-28T02:59:40.618Z,9.25
2018-09-28T03:00:13.843Z,9.80
2018-09-28T03:00:47.816Z,6.60
2018-09-28T03:01:21.007Z,13.38
2018-09-28T03:01:54.336Z,9.98
2018-09-28T03:02:27.524Z,9.73
2018-09-28T03:03:00.722Z,10.43
2018-09-28T03:03:33.926Z,13.20
2018-09-28T03:04:07.139Z,10.38
2018-09-28T03:04:40.328Z,7.42
2018-09-28T03:05:13.558Z,9.60
2018-09-28T03:05:46.736Z,10.25
2018-09-28T03:06:19.957Z,9.35
2018-09-28T03:06:53.145Z,9.85
2018-09-28T03:07:26.358Z,9.50
2018-09-28T03:07:59.549Z,9.10
2018-09-28T03:08:32.722Z,12.63
2018-09-28T03:09:07.499Z,9.75
2018-09-28T03:09:40.659Z,9.65
2018-09-28T03:10:14.429Z,6.60
2018-09-28T03:10:47.640Z,10.20
2018-09-28T03:11:20.791Z,8.60
2018-09-28T03:11:54.000Z,6.78
2018-09-28T03:12:27.228Z,13.85
2018-09-28T03:13:00.424Z,10.43
2018-09-28T03:13:33.641Z,9.93
2018-09-28T03:14:06.930Z,9.43
2018-09-28T03:14:40.146Z,14.60
2018-09-28T03:15:13.357Z,9.88
2018-09-28T03:15:46.531Z,7.50
2018-09-28T03:16:19.772Z,12.63
2018-09-28T03:16:53.361Z,9.10
2018-09-28T03:17:26.540Z,9.83
2018-09-28T03:18:01.283Z,12.88
2018-09-28T03:18:34.618Z,11.73
2018-09-28T03:19:07.904Z,12.78
2018-09-28T03:19:41.118Z,11.50
2018-09-28T03:20:14.312Z,8.80
2018-09-28T03:20:47.599Z,10.00
2018-09-28T03:21:20.779Z,7.37
2018-09-28T03:21:53.981Z,13.50
2018-09-28T03:22:27.188Z,13.32
2018-09-28T03:23:00.392Z,15.05
2018-09-28T03:23:33.671Z,9.58
2018-09-28T03:24:06.983Z,13.93
2018-09-28T03:24:40.267Z,10.25
2018-09-28T03:25:13.707Z,14.18
2018-09-28T03:25:46.927Z,9.95
2018-09-28T03:26:20.213Z,14.28
2018-09-28T03:26:53.568Z,10.80
2018-09-28T03:27:26.797Z,10.95
2018-09-28T03:28:00.326Z,8.75
2018-09-28T03:28:33.657Z,14.53
2018-09-28T03:29:06.876Z,9.83
2018-09-28T03:29:40.084Z,11.75
2018-09-28T03:30:13.627Z,11.70
2018-09-28T03:30:46.917Z,10.72
2018-09-28T03:31:20.195Z,10.38
2018-09-28T03:31:53.458Z,12.03
2018-09-28T03:32:27.177Z,11.83
2018-09-28T03:33:00.364Z,11.97
2018-09-28T03:33:33.542Z,9.03
2018-09-28T03:34:07.044Z,12.00
2018-09-28T03:34:40.227Z,12.18
2018-09-28T03:35:13.427Z,12.98
2018-09-28T03:35:46.947Z,8.25
2018-09-28T03:36:20.159Z,15.10
2018-09-28T03:36:53.385Z,11.05
2018-09-28T03:37:26.618Z,12.82
2018-09-28T03:38:00.033Z,9.70
2018-09-28T03:38:33.626Z,11.68
2018-09-28T03:39:07.379Z,14.03
2018-09-28T03:39:40.616Z,11.22
2018-09-28T03:40:13.848Z,13.72
2018-09-28T03:40:47.088Z,12.93
2018-09-28T03:41:20.408Z,10.40
2018-09-28T03:41:53.665Z,12.10
2018-09-28T03:42:27.262Z,10.35
2018-09-28T03:43:00.542Z,12.18
2018-09-28T03:43:33.788Z,13.10
2018-09-28T03:44:07.279Z,11.18
2018-09-28T03:44:40.610Z,11.48
2018-09-28T03:45:13.779Z,14.03
2018-09-28T03:45:46.965Z,13.75
2018-09-28T03:46:20.135Z,13.93
2018-09-28T03:46:53.559Z,14.78
2018-09-28T03:47:26.788Z,21.80
2018-09-28T03:47:59.929Z,14.78
2018-09-28T03:48:33.248Z,12.90
2018-09-28T03:49:06.525Z,13.60
2018-09-28T03:49:40.009Z,12.35
2018-09-28T03:50:13.231Z,11.73
2018-09-28T03:50:46.776Z,12.73
2018-09-28T03:51:20.128Z,17.35
2018-09-28T03:51:53.319Z,12.37
2018-09-28T03:52:26.503Z,13.95
2018-09-28T03:52:59.740Z,15.60
2018-09-28T03:53:32.958Z,12.50
2018-09-28T03:54:06.138Z,14.35
2018-09-28T03:54:39.329Z,12.75
2018-09-28T03:55:12.952Z,13.50
2018-09-28T03:55:46.121Z,12.10
2018-09-28T03:56:19.359Z,15.35
2018-09-28T03:56:52.811Z,14.28
2018-09-28T03:57:26.670Z,11.25
2018-09-28T03:57:59.895Z,15.00
2018-09-28T03:58:33.800Z,12.85
2018-09-28T03:59:07.125Z,14.38
2018-09-28T03:59:41.056Z,16.25
2018-09-28T04:00:14.292Z,14.73
2018-09-28T04:00:47.596Z,12.98
2018-09-28T04:01:20.935Z,16.23
2018-09-28T04:01:54.139Z,18.05
2018-09-28T04:02:27.559Z,16.27
2018-09-28T04:03:00.852Z,15.08
2018-09-28T04:03:33.975Z,13.03
2018-09-28T04:04:07.556Z,16.77
2018-09-28T04:04:40.790Z,13.88
2018-09-28T04:05:14.047Z,13.38
2018-09-28T04:05:47.197Z,16.15
2018-09-28T04:06:20.530Z,12.13
2018-09-28T04:06:53.919Z,13.55
2018-09-28T04:07:27.162Z,14.07
2018-09-28T04:08:00.505Z,13.45
2018-09-28T04:08:33.870Z,15.88
2018-09-28T04:09:09.339Z,14.10
2018-09-28T04:09:42.619Z,16.60
2018-09-28T04:10:15.987Z,15.13
2018-09-28T04:10:49.243Z,12.88
2018-09-28T04:11:22.486Z,16.10
2018-09-28T04:11:55.804Z,15.35
2018-09-28T04:12:29.072Z,14.35
2018-09-28T04:13:02.261Z,15.78
2018-09-28T04:13:35.543Z,13.70
2018-09-28T04:14:08.758Z,16.32
2018-09-28T04:14:41.975Z,15.90
2018-09-28T04:15:15.332Z,15.25
2018-09-28T04:15:48.999Z,15.10
2018-09-28T04:16:22.376Z,15.50
2018-09-28T04:16:55.619Z,14.28
2018-09-28T04:17:28.946Z,17.77
2018-09-28T04:18:02.243Z,16.35
2018-09-28T04:18:42.071Z,15.45
2018-09-28T04:19:15.300Z,16.37
2018-09-28T04:19:48.579Z,18.02
2018-09-28T04:20:21.818Z,15.85
2018-09-28T04:20:55.036Z,13.30
2018-09-28T04:21:28.287Z,14.50
2018-09-28T04:22:02.520Z,16.82
2018-09-28T04:22:35.825Z,16.62
2018-09-28T04:23:09.092Z,13.83
2018-09-28T04:23:42.457Z,14.70
2018-09-28T04:24:15.872Z,13.65
2018-09-28T04:24:49.109Z,15.83
2018-09-28T04:25:22.808Z,16.65
2018-09-28T04:25:56.029Z,15.18
2018-09-28T04:26:29.318Z,15.13
2018-09-28T04:27:02.819Z,18.85
2018-09-28T04:27:36.258Z,14.33
2018-09-28T04:28:09.502Z,16.70
2018-09-28T04:28:42.755Z,14.75
2018-09-28T04:29:16.147Z,17.42
2018-09-28T04:29:49.615Z,16.50
2018-09-28T04:30:23.130Z,17.23
2018-09-28T04:30:56.971Z,16.55
2018-09-28T04:31:30.416Z,14.43
2018-09-28T04:32:04.142Z,17.00
2018-09-28T04:32:37.404Z,17.50
2018-09-28T04:33:10.638Z,19.37
2018-09-28T04:33:44.113Z,15.30
2018-09-28T04:34:18.203Z,19.42
2018-09-28T04:34:51.378Z,18.15
2018-09-28T04:35:24.849Z,17.20
2018-09-28T04:35:58.340Z,15.10
2018-09-28T04:36:31.548Z,16.42
2018-09-28T04:37:04.805Z,16.85
2018-09-28T04:37:38.541Z,17.07
2018-09-28T04:38:12.638Z,17.42
2018-09-28T04:38:45.873Z,15.50
2018-09-28T04:39:19.290Z,16.10
2018-09-28T04:39:52.539Z,16.97
2018-09-28T04:40:26.252Z,17.12
2018-09-28T04:40:59.594Z,22.32
2018-09-28T04:41:33.189Z,15.70
2018-09-28T04:42:06.714Z,14.50
2018-09-28T04:42:40.050Z,17.40
2018-09-28T04:43:13.532Z,17.70
2018-09-28T04:43:46.934Z,17.75
2018-09-28T04:44:20.639Z,19.80
2018-09-28T04:44:54.007Z,18.12
2018-09-28T04:45:27.265Z,15.72
2018-09-28T04:46:00.631Z,17.70
2018-09-28T04:46:33.846Z,17.82
2018-09-28T04:47:07.356Z,18.02
2018-09-28T04:47:40.797Z,18.25
2018-09-28T04:48:14.728Z,13.48
2018-09-28T04:48:47.964Z,16.52
2018-09-28T04:49:22.807Z,18.95
2018-09-28T04:50:03.682Z,16.27
2018-09-28T04:50:37.183Z,16.67
2018-09-28T04:51:10.439Z,15.83
2018-09-28T04:51:43.708Z,15.38
2018-09-28T04:52:17.020Z,18.57
2018-09-28T04:52:50.329Z,20.12
2018-09-28T04:53:23.697Z,20.72
2018-09-28T04:53:56.870Z,15.40
2018-09-28T04:54:30.281Z,19.30
2018-09-28T04:55:03.562Z,18.90
2018-09-28T04:55:36.891Z,18.85
2018-09-28T04:56:10.351Z,17.02
2018-09-28T04:56:43.618Z,15.00
2018-09-28T04:57:16.857Z,17.60
2018-09-28T04:57:51.262Z,15.88
2018-09-28T04:58:24.421Z,18.82
2018-09-28T04:58:57.642Z,21.52
2018-09-28T04:59:30.960Z,17.00
2018-09-28T05:00:04.366Z,18.17
2018-09-28T05:00:37.713Z,15.50
2018-09-28T05:01:11.553Z,17.32
2018-09-28T05:01:45.092Z,19.60
2018-09-28T05:02:18.838Z,18.07
2018-09-28T05:02:52.131Z,15.95
2018-09-28T05:03:26.976Z,20.80
2018-09-28T05:04:00.274Z,21.42
2018-09-28T05:04:33.728Z,19.02
2018-09-28T05:05:07.097Z,16.42
2018-09-28T05:05:41.286Z,21.57
2018-09-28T05:06:14.887Z,21.90
2018-09-28T05:06:48.293Z,20.12
2018-09-28T05:07:21.651Z,20.85
2018-09-28T05:07:55.075Z,20.95
2018-09-28T05:08:29.045Z,24.60
2018-09-28T05:09:02.235Z,19.20
2018-09-28T05:09:35.913Z,21.07
2018-09-28T05:10:09.707Z,18.87
2018-09-28T05:10:43.062Z,16.70
2018-09-28T05:11:16.581Z,17.37
2018-09-28T05:11:49.834Z,16.35
2018-09-28T05:12:23.105Z,17.00
2018-09-28T05:12:56.492Z,19.45
2018-09-28T05:13:29.798Z,16.90
2018-09-28T05:14:03.141Z,18.87
2018-09-28T05:14:36.677Z,26.40
2018-09-28T05:15:09.993Z,18.50
2018-09-28T05:15:43.279Z,18.60
2018-09-28T05:16:16.573Z,18.60
2018-09-28T05:16:49.775Z,20.27
2018-09-28T05:17:23.115Z,25.45
2018-09-28T05:17:56.347Z,24.50
2018-09-28T05:18:30.673Z,20.82
2018-09-28T05:19:03.992Z,26.30
2018-09-28T05:19:37.361Z,20.92
2018-09-28T05:20:10.572Z,19.20
2018-09-28T05:20:43.866Z,18.65
2018-09-28T05:21:17.457Z,17.40
2018-09-28T05:21:50.922Z,18.90
2018-09-28T05:22:25.767Z,19.77
2018-09-28T05:22:59.618Z,21.50
2018-09-28T05:23:32.929Z,22.58
2018-09-28T05:24:06.514Z,21.45
2018-09-28T05:24:39.985Z,18.82
2018-09-28T05:25:13.334Z,22.37
2018-09-28T05:25:46.747Z,21.27
2018-09-28T05:26:20.267Z,19.40
2018-09-28T05:26:53.484Z,20.92
2018-09-28T05:27:26.854Z,20.95
2018-09-28T05:28:00.045Z,20.32
2018-09-28T05:28:33.309Z,18.75
2018-09-28T05:29:06.730Z,19.70
2018-09-28T05:29:39.946Z,16.57
2018-09-28T05:30:13.408Z,20.23
2018-09-28T05:30:53.963Z,23.70
2018-09-28T05:31:20.987Z,22.17
2018-09-28T05:31:54.463Z,21.30
2018-09-28T05:32:27.911Z,16.25
2018-09-28T05:33:02.046Z,20.57
2018-09-28T05:33:35.345Z,17.75
2018-09-28T05:34:08.558Z,19.80
2018-09-28T05:34:41.991Z,18.42
2018-09-28T05:35:15.263Z,18.95
2018-09-28T05:35:49.204Z,22.00
2018-09-28T05:36:22.745Z,20.52
2018-09-28T05:36:56.349Z,20.27
2018-09-28T05:37:29.881Z,20.82
2018-09-28T05:38:03.208Z,23.35
2018-09-28T05:38:36.579Z,22.93
2018-09-28T05:39:10.226Z,23.32
2018-09-28T05:39:43.439Z,16.25
2018-09-28T05:40:16.744Z,18.62
2018-09-28T05:40:50.041Z,20.48
2018-09-28T05:41:23.420Z,20.43
2018-09-28T05:41:57.017Z,22.35
2018-09-28T05:42:30.439Z,22.37
2018-09-28T05:43:03.958Z,22.52
2018-09-28T05:43:37.325Z,21.70
2018-09-28T05:44:11.558Z,20.20
2018-09-28T05:44:46.805Z,21.15
2018-09-28T05:45:20.394Z,16.75
2018-09-28T05:45:54.231Z,18.25
2018-09-28T05:46:28.042Z,20.02
2018-09-28T05:47:01.227Z,20.15
2018-09-28T05:47:34.708Z,22.27
2018-09-28T05:48:07.986Z,19.15
2018-09-28T05:48:41.748Z,19.52
2018-09-28T05:49:15.126Z,20.80
2018-09-28T05:49:48.426Z,16.97
2018-09-28T05:50:21.662Z,18.00
2018-09-28T05:50:54.969Z,18.60
2018-09-28T05:51:28.647Z,19.60
2018-09-28T05:52:02.165Z,19.42
2018-09-28T05:52:35.685Z,20.57
2018-09-28T05:53:09.591Z,21.20
2018-09-28T05:53:42.792Z,19.95
2018-09-28T05:54:16.100Z,17.90
2018-09-28T05:54:50.182Z,18.42
2018-09-28T05:55:23.393Z,19.25
2018-09-28T05:55:56.716Z,20.05
2018-09-28T05:56:30.240Z,21.45
2018-09-28T05:57:03.661Z,20.27
2018-09-28T05:57:37.264Z,19.30
2018-09-28T05:58:16.126Z,20.97
2018-09-28T05:58:54.881Z,19.37
2018-09-28T05:59:33.655Z,18.50
2018-09-28T06:00:12.670Z,18.80
2018-09-28T06:00:51.625Z,17.80
2018-09-28T06:01:30.345Z,18.50
2018-09-28T06:02:09.240Z,21.65
2018-09-28T06:02:48.292Z,25.08
2018-09-28T06:03:22.125Z,21.33
2018-09-28T06:04:00.824Z,20.25
2018-09-28T06:04:39.746Z,20.27
2018-09-28T06:05:18.724Z,16.87
2018-09-28T06:05:57.343Z,21.45
2018-09-28T06:06:30.731Z,19.55
2018-09-28T06:07:04.461Z,24.07
2018-09-28T06:07:37.846Z,18.07
2018-09-28T06:08:11.715Z,20.65
2018-09-28T06:08:45.514Z,19.12
2018-09-28T06:09:18.779Z,19.32
2018-09-28T06:09:52.500Z,19.70
2018-09-28T06:10:25.896Z,17.75
2018-09-28T06:10:59.164Z,24.05
2018-09-28T06:11:32.418Z,16.27
2018-09-28T06:12:05.784Z,18.95
2018-09-28T06:12:39.266Z,18.92
2018-09-28T06:13:12.855Z,22.13
2018-09-28T06:13:46.872Z,20.40
2018-09-28T06:14:26.858Z,16.12
2018-09-28T06:15:00.399Z,24.00
2018-09-28T06:15:33.634Z,21.82
2018-09-28T06:16:07.069Z,19.85
2018-09-28T06:16:40.990Z,25.10
2018-09-28T06:17:14.654Z,19.23
2018-09-28T06:17:48.078Z,21.05
2018-09-28T06:18:21.589Z,19.57
2018-09-28T06:18:55.092Z,20.23
2018-09-28T06:19:28.284Z,17.15
2018-09-28T06:20:02.805Z,20.48
2018-09-28T06:20:36.147Z,20.62
2018-09-28T06:21:09.403Z,23.02
2018-09-28T06:21:42.900Z,17.42
2018-09-28T06:22:16.215Z,16.82
2018-09-28T06:22:49.807Z,20.77
2018-09-28T06:23:23.762Z,20.15
2018-09-28T06:23:57.071Z,22.48
2018-09-28T06:24:30.277Z,19.27
2018-09-28T06:25:03.501Z,18.98
2018-09-28T06:25:36.759Z,20.00
2018-09-28T06:26:10.122Z,17.62
2018-09-28T06:26:43.395Z,15.55
2018-09-28T06:27:17.211Z,18.02
2018-09-28T06:27:51.283Z,16.82
2018-09-28T06:28:24.530Z,19.25
2018-09-28T06:28:57.939Z,20.40
2018-09-28T06:29:31.329Z,20.05
2018-09-28T06:30:04.602Z,16.77
2018-09-28T06:30:38.018Z,16.87
2018-09-28T06:31:11.233Z,20.95
2018-09-28T06:31:44.460Z,16.90
2018-09-28T06:32:17.731Z,17.12
2018-09-28T06:32:51.864Z,17.02
2018-09-28T06:33:25.526Z,19.12
2018-09-28T06:33:58.795Z,13.85
2018-09-28T06:34:32.284Z,15.43
2018-09-28T06:35:05.665Z,20.50
2018-09-28T06:35:38.952Z,18.67
2018-09-28T06:36:12.224Z,16.67
2018-09-28T06:36:45.604Z,18.82
2018-09-28T06:37:18.878Z,15.93
2018-09-28T06:37:52.346Z,18.00
2018-09-28T06:38:27.631Z,12.68
2018-09-28T06:39:00.851Z,17.67
2018-09-28T06:39:34.073Z,15.20
2018-09-28T06:40:07.358Z,18.05
2018-09-28T06:40:40.687Z,15.43
2018-09-28T06:41:13.959Z,14.80
2018-09-28T06:41:47.541Z,11.75
2018-09-28T06:42:21.500Z,13.25
2018-09-28T06:42:54.948Z,11.10
2018-09-28T06:43:28.241Z,13.03
2018-09-28T06:44:01.683Z,14.45
2018-09-28T06:44:35.017Z,15.03
2018-09-28T06:45:08.488Z,16.62
2018-09-28T06:45:41.739Z,11.53
2018-09-28T06:46:15.030Z,13.65
2018-09-28T06:46:48.638Z,11.75
2018-09-28T06:47:22.140Z,11.50
2018-09-28T06:47:55.785Z,13.22
2018-09-28T06:48:29.407Z,17.45
2018-09-28T06:49:02.738Z,9.30
2018-09-28T06:49:36.237Z,11.03
2018-09-28T06:50:09.526Z,9.70
2018-09-28T06:50:42.711Z,11.80
2018-09-28T06:51:16.022Z,11.55
2018-09-28T06:51:49.159Z,8.63
2018-09-28T06:52:22.413Z,13.28
2018-09-28T06:52:55.930Z,9.18
2018-09-28T06:53:29.369Z,10.95
2018-09-28T06:54:02.731Z,11.25
2018-09-28T06:54:35.959Z,11.00
2018-09-28T06:55:09.406Z,12.15
2018-09-28T06:55:42.739Z,13.03
2018-09-28T06:56:16.000Z,10.63
2018-09-28T06:56:49.398Z,5.97
2018-09-28T06:57:22.779Z,12.68
2018-09-28T06:57:56.122Z,9.25
2018-09-28T06:58:29.765Z,6.62
2018-09-28T06:59:03.278Z,9.93
2018-09-28T06:59:36.511Z,7.90
2018-09-28T07:00:10.056Z,6.90
2018-09-28T07:00:43.299Z,8.73
2018-09-28T07:01:16.483Z,9.90
2018-09-28T07:01:49.788Z,7.28
2018-09-28T07:02:23.187Z,7.42
2018-09-28T07:02:56.442Z,5.50
2018-09-28T07:03:30.255Z,5.92
2018-09-28T07:04:03.591Z,7.25
2018-09-28T07:04:37.155Z,13.40
2018-09-28T07:05:10.423Z,9.83
2018-09-28T07:05:44.778Z,7.83
2018-09-28T07:06:18.188Z,8.65
2018-09-28T07:06:51.634Z,6.75
2018-09-28T07:07:25.309Z,8.55
2018-09-28T07:07:58.582Z,10.63
2018-09-28T07:08:31.787Z,8.25
2018-09-28T07:09:07.843Z,7.30
2018-09-28T07:09:41.107Z,12.82
2018-09-28T07:10:14.321Z,7.03
2018-09-28T07:10:47.610Z,14.23
2018-09-28T07:11:20.826Z,3.20
2018-09-28T07:11:54.130Z,12.95
2018-09-28T07:12:27.477Z,9.55
2018-09-28T07:13:00.790Z,5.92
2018-09-28T07:13:34.246Z,9.15
2018-09-28T07:14:07.690Z,5.35
2018-09-28T07:14:40.948Z,6.25
2018-09-28T07:15:14.512Z,12.05
2018-09-28T07:15:47.887Z,9.08
2018-09-28T07:16:21.468Z,5.92
2018-09-28T07:16:54.983Z,6.87
2018-09-28T07:17:28.406Z,4.60
2018-09-28T07:18:02.998Z,6.35